sensor_id;sensor_type;location;lat;lon;timestamp;P1;durP1;ratioP1;P2;durP2;ratioP2
7685;SDS011;3885;51.474;-2.576;2022-07-03T00:01:24;1.77;;;0.93;;
7685;SDS011;3885;51.474;-2.576;2022-07-03T00:03:52;3.50;;;2.60;;
7685;SDS011;3885;51.474;-2.576;2022-07-03T00:06:20;2.80;;;1.53;;
7685;SDS011;3885;51.474;-2.576;2022-07-03T00:08:47;2.33;;;1.20;;
7685;SDS011;3885;51.474;-2.576;2022-07-03T00:11:15;1.60;;;1.07;;
7685;SDS011;3885;51.474;-2.576;2022-07-03T00:13:42;2.23;;;1.50;;
7685;SDS011;3885;51.474;-2.576;2022-07-03T00:16:09;1.20;;;1.10;;
7685;SDS011;3885;51.474;-2.576;2022-07-03T00:18:36;3.43;;;1.20;;
7685;SDS011;3885;51.474;-2.576;2022-07-03T00:21:04;2.67;;;1.53;;
7685;SDS011;3885;51.474;-2.576;2022-07-03T00:23:37;1.63;;;1.30;;
7685;SDS011;3885;51.474;-2.576;2022-07-03T00:26:07;1.40;;;1.30;;
7685;SDS011;3885;51.474;-2.576;2022-07-03T00:28:34;1.60;;;1.50;;
7685;SDS011;3885;51.474;-2.576;2022-07-03T00:31:01;4.93;;;3.20;;
7685;SDS011;3885;51.474;-2.576;2022-07-03T00:33:29;3.33;;;2.53;;
7685;SDS011;3885;51.474;-2.576;2022-07-03T00:36:00;5.23;;;2.20;;
7685;SDS011;3885;51.474;-2.576;2022-07-03T00:38:28;4.60;;;3.63;;
7685;SDS011;3885;51.474;-2.576;2022-07-03T00:40:56;3.40;;;3.10;;
7685;SDS011;3885;51.474;-2.576;2022-07-03T00:43:23;2.80;;;2.60;;
7685;SDS011;3885;51.474;-2.576;2022-07-03T00:45:51;2.80;;;2.60;;
7685;SDS011;3885;51.474;-2.576;2022-07-03T00:48:20;3.43;;;3.13;;
7685;SDS011;3885;51.474;-2.576;2022-07-03T00:50:48;4.63;;;2.20;;
7685;SDS011;3885;51.474;-2.576;2022-07-03T00:53:17;2.40;;;2.20;;
7685;SDS011;3885;51.474;-2.576;2022-07-03T00:55:48;3.30;;;2.70;;
7685;SDS011;3885;51.474;-2.576;2022-07-03T00:58:18;3.10;;;2.40;;
7685;SDS011;3885;51.474;-2.576;2022-07-03T01:00:45;1.90;;;1.60;;
7685;SDS011;3885;51.474;-2.576;2022-07-03T01:03:17;1.87;;;1.70;;
7685;SDS011;3885;51.474;-2.576;2022-07-03T01:05:49;2.60;;;2.23;;
7685;SDS011;3885;51.474;-2.576;2022-07-03T01:08:20;1.67;;;1.57;;
7685;SDS011;3885;51.474;-2.576;2022-07-03T01:10:54;1.73;;;1.60;;
7685;SDS011;3885;51.474;-2.576;2022-07-03T01:13:35;1.87;;;1.67;;
7685;SDS011;3885;51.474;-2.576;2022-07-03T01:16:12;2.03;;;1.87;;
7685;SDS011;3885;51.474;-2.576;2022-07-03T01:18:49;3.30;;;1.57;;
7685;SDS011;3885;51.474;-2.576;2022-07-03T01:21:31;4.47;;;1.93;;
7685;SDS011;3885;51.474;-2.576;2022-07-03T01:24:16;1.47;;;1.37;;
7685;SDS011;3885;51.474;-2.576;2022-07-03T01:27:02;2.50;;;1.50;;
7685;SDS011;3885;51.474;-2.576;2022-07-03T01:29:35;1.33;;;1.27;;
7685;SDS011;3885;51.474;-2.576;2022-07-03T01:32:11;2.57;;;1.90;;
7685;SDS011;3885;51.474;-2.576;2022-07-03T01:34:42;2.70;;;1.70;;
7685;SDS011;3885;51.474;-2.576;2022-07-03T01:37:15;6.60;;;2.10;;
7685;SDS011;3885;51.474;-2.576;2022-07-03T01:39:44;4.77;;;2.20;;
7685;SDS011;3885;51.474;-2.576;2022-07-03T01:42:13;1.70;;;1.60;;
7685;SDS011;3885;51.474;-2.576;2022-07-03T01:44:41;1.77;;;1.67;;
7685;SDS011;3885;51.474;-2.576;2022-07-03T01:47:09;2.77;;;1.50;;
7685;SDS011;3885;51.474;-2.576;2022-07-03T01:49:36;4.57;;;3.17;;
7685;SDS011;3885;51.474;-2.576;2022-07-03T01:52:06;3.43;;;2.40;;
7685;SDS011;3885;51.474;-2.576;2022-07-03T01:54:36;2.00;;;1.70;;
7685;SDS011;3885;51.474;-2.576;2022-07-03T01:57:05;1.50;;;0.73;;
7685;SDS011;3885;51.474;-2.576;2022-07-03T01:59:34;3.43;;;1.17;;
7685;SDS011;3885;51.474;-2.576;2022-07-03T02:02:04;1.07;;;0.83;;
7685;SDS011;3885;51.474;-2.576;2022-07-03T02:04:40;5.27;;;1.10;;
7685;SDS011;3885;51.474;-2.576;2022-07-03T02:07:18;4.13;;;1.47;;
7685;SDS011;3885;51.474;-2.576;2022-07-03T02:09:58;4.73;;;1.30;;
7685;SDS011;3885;51.474;-2.576;2022-07-03T02:12:32;1.97;;;0.93;;
7685;SDS011;3885;51.474;-2.576;2022-07-03T02:15:06;4.77;;;1.30;;
7685;SDS011;3885;51.474;-2.576;2022-07-03T02:17:35;2.10;;;1.10;;
7685;SDS011;3885;51.474;-2.576;2022-07-03T02:20:05;2.33;;;1.47;;
7685;SDS011;3885;51.474;-2.576;2022-07-03T02:22:34;1.63;;;1.23;;
7685;SDS011;3885;51.474;-2.576;2022-07-03T02:25:03;4.30;;;1.30;;
7685;SDS011;3885;51.474;-2.576;2022-07-03T02:27:38;3.53;;;1.07;;
7685;SDS011;3885;51.474;-2.576;2022-07-03T02:30:11;0.80;;;0.80;;
7685;SDS011;3885;51.474;-2.576;2022-07-03T02:32:40;6.83;;;1.10;;
7685;SDS011;3885;51.474;-2.576;2022-07-03T02:35:11;5.40;;;0.90;;
7685;SDS011;3885;51.474;-2.576;2022-07-03T02:37:42;0.80;;;0.80;;
7685;SDS011;3885;51.474;-2.576;2022-07-03T02:40:17;0.83;;;0.83;;
7685;SDS011;3885;51.474;-2.576;2022-07-03T02:42:53;5.60;;;0.90;;
7685;SDS011;3885;51.474;-2.576;2022-07-03T02:45:32;4.77;;;1.03;;
7685;SDS011;3885;51.474;-2.576;2022-07-03T02:48:07;2.40;;;1.20;;
7685;SDS011;3885;51.474;-2.576;2022-07-03T02:50:42;1.40;;;1.07;;
7685;SDS011;3885;51.474;-2.576;2022-07-03T02:53:19;6.27;;;1.60;;
7685;SDS011;3885;51.474;-2.576;2022-07-03T02:55:50;0.83;;;0.83;;
7685;SDS011;3885;51.474;-2.576;2022-07-03T02:58:32;1.80;;;1.33;;
7685;SDS011;3885;51.474;-2.576;2022-07-03T03:01:09;3.13;;;0.93;;
7685;SDS011;3885;51.474;-2.576;2022-07-03T03:03:42;1.13;;;1.03;;
7685;SDS011;3885;51.474;-2.576;2022-07-03T03:06:18;4.10;;;1.57;;
7685;SDS011;3885;51.474;-2.576;2022-07-03T03:08:48;3.80;;;1.00;;
7685;SDS011;3885;51.474;-2.576;2022-07-03T03:11:22;1.80;;;1.07;;
7685;SDS011;3885;51.474;-2.576;2022-07-03T03:13:52;0.83;;;0.83;;
7685;SDS011;3885;51.474;-2.576;2022-07-03T03:16:24;0.80;;;0.80;;
7685;SDS011;3885;51.474;-2.576;2022-07-03T03:18:52;1.00;;;0.90;;
7685;SDS011;3885;51.474;-2.576;2022-07-03T03:21:19;0.80;;;0.80;;
7685;SDS011;3885;51.474;-2.576;2022-07-03T03:23:52;1.40;;;0.80;;
7685;SDS011;3885;51.474;-2.576;2022-07-03T03:26:19;4.20;;;2.13;;
7685;SDS011;3885;51.474;-2.576;2022-07-03T03:28:47;1.20;;;1.10;;
7685;SDS011;3885;51.474;-2.576;2022-07-03T03:31:15;1.43;;;1.07;;
7685;SDS011;3885;51.474;-2.576;2022-07-03T03:33:45;1.40;;;1.30;;
7685;SDS011;3885;51.474;-2.576;2022-07-03T03:36:15;3.43;;;1.00;;
7685;SDS011;3885;51.474;-2.576;2022-07-03T03:38:43;0.93;;;0.90;;
7685;SDS011;3885;51.474;-2.576;2022-07-03T03:41:11;1.20;;;1.10;;
7685;SDS011;3885;51.474;-2.576;2022-07-03T03:43:38;1.50;;;1.20;;
7685;SDS011;3885;51.474;-2.576;2022-07-03T03:46:05;1.00;;;1.00;;
7685;SDS011;3885;51.474;-2.576;2022-07-03T03:48:32;0.93;;;0.93;;
7685;SDS011;3885;51.474;-2.576;2022-07-03T03:51:02;0.90;;;0.90;;
7685;SDS011;3885;51.474;-2.576;2022-07-03T03:53:30;0.97;;;0.83;;
7685;SDS011;3885;51.474;-2.576;2022-07-03T03:56:00;5.27;;;1.10;;
7685;SDS011;3885;51.474;-2.576;2022-07-03T03:58:30;1.63;;;1.07;;
7685;SDS011;3885;51.474;-2.576;2022-07-03T04:01:00;1.03;;;0.77;;
7685;SDS011;3885;51.474;-2.576;2022-07-03T04:03:29;0.83;;;0.83;;
7685;SDS011;3885;51.474;-2.576;2022-07-03T04:05:57;0.70;;;0.70;;
7685;SDS011;3885;51.474;-2.576;2022-07-03T04:08:26;1.70;;;1.07;;
7685;SDS011;3885;51.474;-2.576;2022-07-03T04:10:53;1.87;;;1.10;;
7685;SDS011;3885;51.474;-2.576;2022-07-03T04:13:21;1.10;;;1.10;;
7685;SDS011;3885;51.474;-2.576;2022-07-03T04:15:48;1.07;;;1.07;;
7685;SDS011;3885;51.474;-2.576;2022-07-03T04:18:16;1.80;;;1.60;;
7685;SDS011;3885;51.474;-2.576;2022-07-03T04:20:44;1.20;;;1.10;;
7685;SDS011;3885;51.474;-2.576;2022-07-03T04:23:11;1.63;;;1.13;;
7685;SDS011;3885;51.474;-2.576;2022-07-03T04:25:39;1.13;;;1.03;;
7685;SDS011;3885;51.474;-2.576;2022-07-03T04:28:06;1.73;;;0.93;;
7685;SDS011;3885;51.474;-2.576;2022-07-03T04:30:33;1.23;;;0.87;;
7685;SDS011;3885;51.474;-2.576;2022-07-03T04:33:00;9.20;;;1.30;;
7685;SDS011;3885;51.474;-2.576;2022-07-03T04:35:27;1.00;;;1.00;;
7685;SDS011;3885;51.474;-2.576;2022-07-03T04:37:54;3.43;;;1.27;;
7685;SDS011;3885;51.474;-2.576;2022-07-03T04:40:21;0.73;;;0.73;;
7685;SDS011;3885;51.474;-2.576;2022-07-03T04:42:50;0.87;;;0.80;;
7685;SDS011;3885;51.474;-2.576;2022-07-03T04:45:16;2.10;;;1.13;;
7685;SDS011;3885;51.474;-2.576;2022-07-03T04:47:43;1.23;;;0.87;;
7685;SDS011;3885;51.474;-2.576;2022-07-03T04:50:10;3.90;;;1.57;;
7685;SDS011;3885;51.474;-2.576;2022-07-03T04:52:37;0.97;;;0.97;;
7685;SDS011;3885;51.474;-2.576;2022-07-03T04:55:04;2.20;;;0.80;;
7685;SDS011;3885;51.474;-2.576;2022-07-03T04:57:32;2.50;;;0.87;;
7685;SDS011;3885;51.474;-2.576;2022-07-03T05:00:02;1.43;;;1.20;;
7685;SDS011;3885;51.474;-2.576;2022-07-03T05:02:29;1.63;;;1.00;;
7685;SDS011;3885;51.474;-2.576;2022-07-03T05:04:56;2.73;;;1.00;;
7685;SDS011;3885;51.474;-2.576;2022-07-03T05:07:23;1.10;;;0.83;;
7685;SDS011;3885;51.474;-2.576;2022-07-03T05:09:50;2.07;;;0.90;;
7685;SDS011;3885;51.474;-2.576;2022-07-03T05:12:17;0.93;;;0.93;;
7685;SDS011;3885;51.474;-2.576;2022-07-03T05:14:44;1.20;;;1.10;;
7685;SDS011;3885;51.474;-2.576;2022-07-03T05:17:12;3.90;;;0.90;;
7685;SDS011;3885;51.474;-2.576;2022-07-03T05:19:39;0.90;;;0.90;;
7685;SDS011;3885;51.474;-2.576;2022-07-03T05:22:06;1.73;;;1.13;;
7685;SDS011;3885;51.474;-2.576;2022-07-03T05:24:33;1.53;;;0.80;;
7685;SDS011;3885;51.474;-2.576;2022-07-03T05:27:00;1.27;;;0.87;;
7685;SDS011;3885;51.474;-2.576;2022-07-03T05:29:27;2.50;;;0.90;;
7685;SDS011;3885;51.474;-2.576;2022-07-03T05:31:54;1.07;;;1.07;;
7685;SDS011;3885;51.474;-2.576;2022-07-03T05:34:22;3.33;;;1.30;;
7685;SDS011;3885;51.474;-2.576;2022-07-03T05:36:49;0.90;;;0.80;;
7685;SDS011;3885;51.474;-2.576;2022-07-03T05:39:16;1.10;;;0.87;;
7685;SDS011;3885;51.474;-2.576;2022-07-03T05:42:06;0.90;;;0.90;;
7685;SDS011;3885;51.474;-2.576;2022-07-03T05:44:33;2.60;;;0.90;;
7685;SDS011;3885;51.474;-2.576;2022-07-03T05:47:00;2.73;;;1.50;;
7685;SDS011;3885;51.474;-2.576;2022-07-03T05:49:28;2.53;;;1.03;;
7685;SDS011;3885;51.474;-2.576;2022-07-03T05:51:55;2.80;;;1.03;;
7685;SDS011;3885;51.474;-2.576;2022-07-03T05:54:22;2.70;;;1.20;;
7685;SDS011;3885;51.474;-2.576;2022-07-03T05:56:49;1.03;;;1.00;;
7685;SDS011;3885;51.474;-2.576;2022-07-03T05:59:16;6.83;;;0.90;;
7685;SDS011;3885;51.474;-2.576;2022-07-03T06:01:43;1.20;;;1.10;;
7685;SDS011;3885;51.474;-2.576;2022-07-03T06:04:09;6.90;;;5.40;;
7685;SDS011;3885;51.474;-2.576;2022-07-03T06:06:38;9.77;;;4.90;;
7685;SDS011;3885;51.474;-2.576;2022-07-03T06:09:05;6.40;;;3.77;;
7685;SDS011;3885;51.474;-2.576;2022-07-03T06:11:32;5.20;;;2.53;;
7685;SDS011;3885;51.474;-2.576;2022-07-03T06:13:59;2.17;;;1.83;;
7685;SDS011;3885;51.474;-2.576;2022-07-03T06:16:26;7.43;;;1.97;;
7685;SDS011;3885;51.474;-2.576;2022-07-03T06:18:52;1.27;;;1.17;;
7685;SDS011;3885;51.474;-2.576;2022-07-03T06:21:19;3.70;;;1.07;;
7685;SDS011;3885;51.474;-2.576;2022-07-03T06:23:48;2.40;;;1.23;;
7685;SDS011;3885;51.474;-2.576;2022-07-03T06:26:15;2.67;;;1.30;;
7685;SDS011;3885;51.474;-2.576;2022-07-03T06:28:42;8.20;;;1.50;;
7685;SDS011;3885;51.474;-2.576;2022-07-03T06:31:09;1.57;;;1.40;;
7685;SDS011;3885;51.474;-2.576;2022-07-03T06:33:36;0.87;;;0.87;;
7685;SDS011;3885;51.474;-2.576;2022-07-03T06:36:04;7.90;;;1.00;;
7685;SDS011;3885;51.474;-2.576;2022-07-03T06:38:31;1.80;;;1.10;;
7685;SDS011;3885;51.474;-2.576;2022-07-03T06:40:59;5.23;;;1.10;;
7685;SDS011;3885;51.474;-2.576;2022-07-03T06:43:26;2.20;;;1.23;;
7685;SDS011;3885;51.474;-2.576;2022-07-03T06:45:53;1.23;;;0.90;;
7685;SDS011;3885;51.474;-2.576;2022-07-03T06:48:20;2.40;;;1.17;;
7685;SDS011;3885;51.474;-2.576;2022-07-03T06:50:47;1.07;;;0.97;;
7685;SDS011;3885;51.474;-2.576;2022-07-03T06:53:14;2.43;;;1.13;;
7685;SDS011;3885;51.474;-2.576;2022-07-03T06:55:41;1.50;;;1.40;;
7685;SDS011;3885;51.474;-2.576;2022-07-03T06:58:09;1.80;;;1.17;;
7685;SDS011;3885;51.474;-2.576;2022-07-03T07:00:36;1.20;;;1.10;;
7685;SDS011;3885;51.474;-2.576;2022-07-03T07:03:04;1.40;;;1.30;;
7685;SDS011;3885;51.474;-2.576;2022-07-03T07:05:31;11.43;;;1.80;;
7685;SDS011;3885;51.474;-2.576;2022-07-03T07:07:58;3.43;;;1.53;;
7685;SDS011;3885;51.474;-2.576;2022-07-03T07:10:25;1.67;;;1.57;;
7685;SDS011;3885;51.474;-2.576;2022-07-03T07:12:52;2.20;;;1.80;;
7685;SDS011;3885;51.474;-2.576;2022-07-03T07:15:20;3.57;;;1.83;;
7685;SDS011;3885;51.474;-2.576;2022-07-03T07:17:47;2.60;;;1.83;;
7685;SDS011;3885;51.474;-2.576;2022-07-03T07:20:14;2.73;;;1.50;;
7685;SDS011;3885;51.474;-2.576;2022-07-03T07:22:41;6.33;;;2.00;;
7685;SDS011;3885;51.474;-2.576;2022-07-03T07:25:08;8.57;;;2.47;;
7685;SDS011;3885;51.474;-2.576;2022-07-03T07:27:35;2.40;;;1.53;;
7685;SDS011;3885;51.474;-2.576;2022-07-03T07:30:07;2.40;;;1.80;;
7685;SDS011;3885;51.474;-2.576;2022-07-03T07:32:38;5.37;;;1.83;;
7685;SDS011;3885;51.474;-2.576;2022-07-03T07:35:05;6.43;;;2.07;;
7685;SDS011;3885;51.474;-2.576;2022-07-03T07:37:32;2.10;;;1.50;;
7685;SDS011;3885;51.474;-2.576;2022-07-03T07:39:59;5.07;;;1.80;;
7685;SDS011;3885;51.474;-2.576;2022-07-03T07:42:26;2.27;;;1.40;;
7685;SDS011;3885;51.474;-2.576;2022-07-03T07:44:53;2.60;;;1.77;;
7685;SDS011;3885;51.474;-2.576;2022-07-03T07:47:20;2.07;;;1.50;;
7685;SDS011;3885;51.474;-2.576;2022-07-03T07:49:49;2.20;;;1.70;;
7685;SDS011;3885;51.474;-2.576;2022-07-03T07:52:16;2.50;;;1.57;;
7685;SDS011;3885;51.474;-2.576;2022-07-03T07:54:42;13.03;;;2.33;;
7685;SDS011;3885;51.474;-2.576;2022-07-03T07:57:09;7.20;;;1.90;;
7685;SDS011;3885;51.474;-2.576;2022-07-03T07:59:36;2.57;;;1.57;;
7685;SDS011;3885;51.474;-2.576;2022-07-03T08:02:03;6.97;;;1.80;;
7685;SDS011;3885;51.474;-2.576;2022-07-03T08:04:49;2.87;;;1.50;;
7685;SDS011;3885;51.474;-2.576;2022-07-03T08:07:38;3.43;;;1.70;;
7685;SDS011;3885;51.474;-2.576;2022-07-03T08:10:06;2.53;;;1.97;;
7685;SDS011;3885;51.474;-2.576;2022-07-03T08:12:33;3.13;;;1.97;;
7685;SDS011;3885;51.474;-2.576;2022-07-03T08:15:00;1.93;;;1.70;;
7685;SDS011;3885;51.474;-2.576;2022-07-03T08:17:27;7.27;;;2.20;;
7685;SDS011;3885;51.474;-2.576;2022-07-03T08:19:55;8.00;;;2.00;;
7685;SDS011;3885;51.474;-2.576;2022-07-03T08:22:22;1.40;;;1.30;;
7685;SDS011;3885;51.474;-2.576;2022-07-03T08:24:49;1.93;;;1.40;;
7685;SDS011;3885;51.474;-2.576;2022-07-03T08:27:16;1.73;;;1.20;;
7685;SDS011;3885;51.474;-2.576;2022-07-03T08:29:44;2.30;;;1.20;;
7685;SDS011;3885;51.474;-2.576;2022-07-03T08:32:10;3.03;;;1.67;;
7685;SDS011;3885;51.474;-2.576;2022-07-03T08:34:38;2.00;;;1.53;;
7685;SDS011;3885;51.474;-2.576;2022-07-03T08:37:06;4.30;;;1.57;;
7685;SDS011;3885;51.474;-2.576;2022-07-03T08:39:33;7.30;;;1.90;;
7685;SDS011;3885;51.474;-2.576;2022-07-03T08:42:00;2.13;;;1.93;;
7685;SDS011;3885;51.474;-2.576;2022-07-03T08:44:28;8.00;;;2.37;;
7685;SDS011;3885;51.474;-2.576;2022-07-03T08:46:56;7.03;;;2.57;;
7685;SDS011;3885;51.474;-2.576;2022-07-03T08:49:27;10.17;;;2.10;;
7685;SDS011;3885;51.474;-2.576;2022-07-03T08:51:55;6.37;;;2.90;;
7685;SDS011;3885;51.474;-2.576;2022-07-03T08:54:23;3.80;;;1.93;;
7685;SDS011;3885;51.474;-2.576;2022-07-03T08:56:50;4.13;;;2.03;;
7685;SDS011;3885;51.474;-2.576;2022-07-03T08:59:17;5.53;;;2.20;;
7685;SDS011;3885;51.474;-2.576;2022-07-03T09:01:46;4.57;;;1.80;;
7685;SDS011;3885;51.474;-2.576;2022-07-03T09:04:13;2.30;;;1.97;;
7685;SDS011;3885;51.474;-2.576;2022-07-03T09:06:41;3.77;;;1.90;;
7685;SDS011;3885;51.474;-2.576;2022-07-03T09:09:08;2.77;;;2.00;;
7685;SDS011;3885;51.474;-2.576;2022-07-03T09:11:37;8.73;;;1.50;;
7685;SDS011;3885;51.474;-2.576;2022-07-03T09:14:05;4.90;;;1.77;;
7685;SDS011;3885;51.474;-2.576;2022-07-03T09:16:33;3.37;;;1.40;;
7685;SDS011;3885;51.474;-2.576;2022-07-03T09:19:01;3.33;;;1.70;;
7685;SDS011;3885;51.474;-2.576;2022-07-03T09:21:34;2.67;;;1.40;;
7685;SDS011;3885;51.474;-2.576;2022-07-03T09:24:03;1.60;;;1.07;;
7685;SDS011;3885;51.474;-2.576;2022-07-03T09:26:31;5.63;;;1.73;;
7685;SDS011;3885;51.474;-2.576;2022-07-03T09:29:00;1.93;;;1.60;;
7685;SDS011;3885;51.474;-2.576;2022-07-03T09:31:28;1.97;;;1.70;;
7685;SDS011;3885;51.474;-2.576;2022-07-03T09:33:57;5.07;;;1.50;;
7685;SDS011;3885;51.474;-2.576;2022-07-03T09:36:37;8.80;;;2.07;;
7685;SDS011;3885;51.474;-2.576;2022-07-03T09:39:20;2.03;;;1.70;;
7685;SDS011;3885;51.474;-2.576;2022-07-03T09:41:55;3.90;;;1.97;;
7685;SDS011;3885;51.474;-2.576;2022-07-03T09:44:32;2.30;;;1.40;;
7685;SDS011;3885;51.474;-2.576;2022-07-03T09:47:07;1.80;;;1.00;;
7685;SDS011;3885;51.474;-2.576;2022-07-03T09:49:44;6.00;;;1.27;;
7685;SDS011;3885;51.474;-2.576;2022-07-03T09:52:25;1.23;;;1.13;;
7685;SDS011;3885;51.474;-2.576;2022-07-03T09:54:54;1.27;;;1.00;;
7685;SDS011;3885;51.474;-2.576;2022-07-03T09:57:21;3.80;;;1.47;;
7685;SDS011;3885;51.474;-2.576;2022-07-03T09:59:50;4.20;;;1.43;;
7685;SDS011;3885;51.474;-2.576;2022-07-03T10:02:52;2.50;;;1.33;;
7685;SDS011;3885;51.474;-2.576;2022-07-03T10:05:22;3.77;;;1.90;;
7685;SDS011;3885;51.474;-2.576;2022-07-03T10:07:51;6.67;;;1.70;;
7685;SDS011;3885;51.474;-2.576;2022-07-03T10:10:20;5.00;;;1.83;;
7685;SDS011;3885;51.474;-2.576;2022-07-03T10:12:48;2.30;;;1.47;;
7685;SDS011;3885;51.474;-2.576;2022-07-03T10:15:18;2.10;;;1.90;;
7685;SDS011;3885;51.474;-2.576;2022-07-03T10:17:50;8.33;;;1.93;;
7685;SDS011;3885;51.474;-2.576;2022-07-03T10:20:23;4.57;;;1.67;;
7685;SDS011;3885;51.474;-2.576;2022-07-03T10:22:51;4.60;;;1.30;;
7685;SDS011;3885;51.474;-2.576;2022-07-03T10:25:19;6.03;;;1.20;;
7685;SDS011;3885;51.474;-2.576;2022-07-03T10:27:46;6.50;;;1.30;;
7685;SDS011;3885;51.474;-2.576;2022-07-03T10:30:14;3.63;;;1.63;;
7685;SDS011;3885;51.474;-2.576;2022-07-03T10:32:45;1.80;;;1.13;;
7685;SDS011;3885;51.474;-2.576;2022-07-03T10:35:13;2.50;;;1.10;;
7685;SDS011;3885;51.474;-2.576;2022-07-03T10:37:46;1.30;;;1.00;;
7685;SDS011;3885;51.474;-2.576;2022-07-03T10:40:31;1.10;;;1.00;;
7685;SDS011;3885;51.474;-2.576;2022-07-03T10:43:21;5.93;;;1.03;;
7685;SDS011;3885;51.474;-2.576;2022-07-03T10:46:14;2.20;;;1.07;;
7685;SDS011;3885;51.474;-2.576;2022-07-03T10:48:52;3.43;;;1.20;;
7685;SDS011;3885;51.474;-2.576;2022-07-03T10:51:32;2.77;;;1.90;;
7685;SDS011;3885;51.474;-2.576;2022-07-03T10:54:19;3.73;;;1.30;;
7685;SDS011;3885;51.474;-2.576;2022-07-03T10:57:05;3.43;;;1.17;;
7685;SDS011;3885;51.474;-2.576;2022-07-03T11:02:22;1.60;;;1.30;;
7685;SDS011;3885;51.474;-2.576;2022-07-03T11:07:39;4.13;;;1.97;;
7685;SDS011;3885;51.474;-2.576;2022-07-03T11:10:29;1.63;;;1.40;;
7685;SDS011;3885;51.474;-2.576;2022-07-03T11:12:58;4.80;;;1.47;;
7685;SDS011;3885;51.474;-2.576;2022-07-03T11:15:26;2.20;;;1.57;;
7685;SDS011;3885;51.474;-2.576;2022-07-03T11:18:11;2.60;;;1.60;;
7685;SDS011;3885;51.474;-2.576;2022-07-03T11:20:57;3.93;;;1.70;;
7685;SDS011;3885;51.474;-2.576;2022-07-03T11:24:03;1.20;;;1.10;;
7685;SDS011;3885;51.474;-2.576;2022-07-03T11:29:48;1.63;;;1.20;;
7685;SDS011;3885;51.474;-2.576;2022-07-03T11:32:45;1.87;;;1.20;;
7685;SDS011;3885;51.474;-2.576;2022-07-03T11:38:15;1.30;;;1.00;;
7685;SDS011;3885;51.474;-2.576;2022-07-03T11:40:44;4.73;;;1.20;;
7685;SDS011;3885;51.474;-2.576;2022-07-03T11:43:13;6.00;;;1.57;;
7685;SDS011;3885;51.474;-2.576;2022-07-03T11:45:41;1.20;;;1.10;;
7685;SDS011;3885;51.474;-2.576;2022-07-03T11:48:09;3.50;;;1.00;;
7685;SDS011;3885;51.474;-2.576;2022-07-03T11:50:39;1.70;;;0.90;;
7685;SDS011;3885;51.474;-2.576;2022-07-03T11:53:16;1.63;;;1.17;;
7685;SDS011;3885;51.474;-2.576;2022-07-03T11:55:59;1.10;;;0.80;;
7685;SDS011;3885;51.474;-2.576;2022-07-03T11:58:39;0.93;;;0.70;;
7685;SDS011;3885;51.474;-2.576;2022-07-03T12:01:07;1.00;;;0.70;;
7685;SDS011;3885;51.474;-2.576;2022-07-03T12:03:35;1.00;;;0.90;;
7685;SDS011;3885;51.474;-2.576;2022-07-03T12:06:02;1.77;;;1.23;;
7685;SDS011;3885;51.474;-2.576;2022-07-03T12:08:31;1.57;;;1.23;;
7685;SDS011;3885;51.474;-2.576;2022-07-03T12:11:00;5.23;;;1.50;;
7685;SDS011;3885;51.474;-2.576;2022-07-03T12:13:29;1.03;;;0.93;;
7685;SDS011;3885;51.474;-2.576;2022-07-03T12:16:07;1.20;;;0.80;;
7685;SDS011;3885;51.474;-2.576;2022-07-03T12:18:42;1.10;;;1.00;;
7685;SDS011;3885;51.474;-2.576;2022-07-03T12:21:14;1.83;;;0.80;;
7685;SDS011;3885;51.474;-2.576;2022-07-03T12:23:47;0.80;;;0.80;;
7685;SDS011;3885;51.474;-2.576;2022-07-03T12:26:26;0.97;;;0.87;;
7685;SDS011;3885;51.474;-2.576;2022-07-03T12:28:55;1.00;;;0.80;;
7685;SDS011;3885;51.474;-2.576;2022-07-03T12:31:23;0.90;;;0.80;;
7685;SDS011;3885;51.474;-2.576;2022-07-03T12:33:50;3.70;;;0.80;;
7685;SDS011;3885;51.474;-2.576;2022-07-03T12:36:17;0.67;;;0.67;;
7685;SDS011;3885;51.474;-2.576;2022-07-03T12:38:48;0.80;;;0.70;;
7685;SDS011;3885;51.474;-2.576;2022-07-03T12:41:17;0.90;;;0.73;;
7685;SDS011;3885;51.474;-2.576;2022-07-03T12:43:45;0.70;;;0.70;;
7685;SDS011;3885;51.474;-2.576;2022-07-03T12:46:15;0.70;;;0.67;;
7685;SDS011;3885;51.474;-2.576;2022-07-03T12:48:46;0.60;;;0.60;;
7685;SDS011;3885;51.474;-2.576;2022-07-03T12:51:17;1.13;;;0.70;;
7685;SDS011;3885;51.474;-2.576;2022-07-03T12:54:00;1.33;;;0.60;;
7685;SDS011;3885;51.474;-2.576;2022-07-03T12:56:27;1.50;;;0.77;;
7685;SDS011;3885;51.474;-2.576;2022-07-03T12:58:54;0.80;;;0.80;;
7685;SDS011;3885;51.474;-2.576;2022-07-03T13:01:38;0.93;;;0.80;;
7685;SDS011;3885;51.474;-2.576;2022-07-03T13:04:06;1.27;;;0.60;;
7685;SDS011;3885;51.474;-2.576;2022-07-03T13:06:34;1.77;;;1.00;;
7685;SDS011;3885;51.474;-2.576;2022-07-03T13:09:03;0.83;;;0.80;;
7685;SDS011;3885;51.474;-2.576;2022-07-03T13:11:32;0.70;;;0.70;;
7685;SDS011;3885;51.474;-2.576;2022-07-03T13:14:06;1.93;;;0.70;;
7685;SDS011;3885;51.474;-2.576;2022-07-03T13:16:36;0.70;;;0.70;;
7685;SDS011;3885;51.474;-2.576;2022-07-03T13:19:08;10.60;;;0.80;;
7685;SDS011;3885;51.474;-2.576;2022-07-03T13:21:36;1.27;;;0.67;;
7685;SDS011;3885;51.474;-2.576;2022-07-03T13:24:04;1.93;;;0.60;;
7685;SDS011;3885;51.474;-2.576;2022-07-03T13:26:33;2.67;;;1.27;;
7685;SDS011;3885;51.474;-2.576;2022-07-03T13:29:00;0.90;;;0.70;;
7685;SDS011;3885;51.474;-2.576;2022-07-03T13:31:27;1.00;;;0.70;;
7685;SDS011;3885;51.474;-2.576;2022-07-03T13:33:55;0.70;;;0.70;;
7685;SDS011;3885;51.474;-2.576;2022-07-03T13:36:23;1.17;;;0.70;;
7685;SDS011;3885;51.474;-2.576;2022-07-03T13:38:51;0.80;;;0.80;;
7685;SDS011;3885;51.474;-2.576;2022-07-03T13:41:19;0.60;;;0.60;;
7685;SDS011;3885;51.474;-2.576;2022-07-03T13:43:48;0.60;;;0.60;;
7685;SDS011;3885;51.474;-2.576;2022-07-03T13:46:15;2.20;;;1.20;;
7685;SDS011;3885;51.474;-2.576;2022-07-03T13:48:42;0.60;;;0.60;;
7685;SDS011;3885;51.474;-2.576;2022-07-03T13:51:09;2.27;;;1.13;;
7685;SDS011;3885;51.474;-2.576;2022-07-03T13:53:36;1.37;;;0.87;;
7685;SDS011;3885;51.474;-2.576;2022-07-03T13:56:03;0.70;;;0.70;;
7685;SDS011;3885;51.474;-2.576;2022-07-03T13:58:32;3.60;;;0.80;;
7685;SDS011;3885;51.474;-2.576;2022-07-03T14:00:59;2.13;;;0.80;;
7685;SDS011;3885;51.474;-2.576;2022-07-03T14:03:26;0.70;;;0.60;;
7685;SDS011;3885;51.474;-2.576;2022-07-03T14:05:53;1.20;;;0.80;;
7685;SDS011;3885;51.474;-2.576;2022-07-03T14:08:21;0.87;;;0.77;;
7685;SDS011;3885;51.474;-2.576;2022-07-03T14:10:48;0.90;;;0.60;;
7685;SDS011;3885;51.474;-2.576;2022-07-03T14:13:16;0.97;;;0.73;;
7685;SDS011;3885;51.474;-2.576;2022-07-03T14:15:44;4.20;;;1.10;;
7685;SDS011;3885;51.474;-2.576;2022-07-03T14:18:11;1.43;;;1.00;;
7685;SDS011;3885;51.474;-2.576;2022-07-03T14:20:42;1.40;;;0.80;;
7685;SDS011;3885;51.474;-2.576;2022-07-03T14:23:09;0.90;;;0.90;;
7685;SDS011;3885;51.474;-2.576;2022-07-03T14:25:36;1.40;;;0.90;;
7685;SDS011;3885;51.474;-2.576;2022-07-03T14:28:03;1.10;;;1.00;;
7685;SDS011;3885;51.474;-2.576;2022-07-03T14:30:49;0.70;;;0.60;;
7685;SDS011;3885;51.474;-2.576;2022-07-03T14:33:33;0.70;;;0.70;;
7685;SDS011;3885;51.474;-2.576;2022-07-03T14:36:00;3.23;;;0.90;;
7685;SDS011;3885;51.474;-2.576;2022-07-03T14:38:27;0.80;;;0.80;;
7685;SDS011;3885;51.474;-2.576;2022-07-03T14:40:54;1.00;;;0.67;;
7685;SDS011;3885;51.474;-2.576;2022-07-03T14:43:21;2.30;;;0.90;;
7685;SDS011;3885;51.474;-2.576;2022-07-03T14:45:50;0.90;;;0.90;;
7685;SDS011;3885;51.474;-2.576;2022-07-03T14:48:17;1.00;;;0.80;;
7685;SDS011;3885;51.474;-2.576;2022-07-03T14:50:45;0.83;;;0.83;;
7685;SDS011;3885;51.474;-2.576;2022-07-03T14:53:13;0.83;;;0.70;;
7685;SDS011;3885;51.474;-2.576;2022-07-03T14:55:40;1.67;;;0.90;;
7685;SDS011;3885;51.474;-2.576;2022-07-03T14:58:13;1.10;;;0.73;;
7685;SDS011;3885;51.474;-2.576;2022-07-03T15:00:45;0.70;;;0.70;;
7685;SDS011;3885;51.474;-2.576;2022-07-03T15:03:17;1.30;;;0.80;;
7685;SDS011;3885;51.474;-2.576;2022-07-03T15:05:46;0.97;;;0.70;;
7685;SDS011;3885;51.474;-2.576;2022-07-03T15:08:33;1.00;;;0.80;;
7685;SDS011;3885;51.474;-2.576;2022-07-03T15:11:29;0.77;;;0.77;;
7685;SDS011;3885;51.474;-2.576;2022-07-03T15:14:17;2.40;;;1.00;;
7685;SDS011;3885;51.474;-2.576;2022-07-03T15:16:47;0.97;;;0.60;;
7685;SDS011;3885;51.474;-2.576;2022-07-03T15:19:18;4.10;;;0.80;;
7685;SDS011;3885;51.474;-2.576;2022-07-03T15:21:46;0.60;;;0.60;;
7685;SDS011;3885;51.474;-2.576;2022-07-03T15:24:14;3.70;;;0.70;;
7685;SDS011;3885;51.474;-2.576;2022-07-03T15:26:48;0.90;;;0.70;;
7685;SDS011;3885;51.474;-2.576;2022-07-03T15:29:18;1.77;;;0.70;;
7685;SDS011;3885;51.474;-2.576;2022-07-03T15:31:46;1.67;;;1.00;;